Mount Princeton, Colorado
Current Conditions -  °F | °C
As of 9:53 AM on Friday 24 Oct 2014 (Local Time) from K7BM Reporting Station
Clear Clear  
Wind Chill: 13°   Ceiling: Unl
Heat Index: 13°   Visibility: 10mi
Dew Point: -19°   Wind: 13mph
Humidity: 9%   Direction: 290°WNW
Pressure: 30.5"   Gusts: 21mph
Location:  38.7194°N, 106.276°W
Report Text: K7BM 241553Z AUTO 29011G18KT 260V330 10SM CLR 13/M19 A3050 RMK AO2
Loading
Personal Weather Stations






























Interactive Weather Map
Tropical Storm Tracking
New forecast layout! Learn more

10-Day Weather Forecast

Advertisements
Track Severe Weather on mobile